sensor_id;sensor_type;location;lat;lon;timestamp;pressure;altitude;pressure_sealevel;temperature;humidity
51067;BME280;37112;45.892;-123.962;2023-02-13T00:01:37;102009.48;;;10.64;77.05
51067;BME280;37112;45.892;-123.962;2023-02-13T00:03:47;102007.47;;;10.57;76.92
51067;BME280;37112;45.892;-123.962;2023-02-13T00:05:57;101997.30;;;10.51;76.81
51067;BME280;37112;45.892;-123.962;2023-02-13T00:08:07;101986.53;;;10.49;77.12
51067;BME280;37112;45.892;-123.962;2023-02-13T00:10:18;101983.92;;;10.48;77.21
51067;BME280;37112;45.892;-123.962;2023-02-13T00:12:27;101983.84;;;10.47;77.29
51067;BME280;37112;45.892;-123.962;2023-02-13T00:14:38;101980.88;;;10.41;77.25
51067;BME280;37112;45.892;-123.962;2023-02-13T00:16:48;101982.28;;;10.34;77.08
51067;BME280;37112;45.892;-123.962;2023-02-13T00:18:58;101982.16;;;10.29;77.32
51067;BME280;37112;45.892;-123.962;2023-02-13T00:21:09;101979.66;;;10.25;77.41
51067;BME280;37112;45.892;-123.962;2023-02-13T00:23:19;101981.07;;;10.22;77.49
51067;BME280;37112;45.892;-123.962;2023-02-13T00:25:29;101982.20;;;10.16;77.48
51067;BME280;37112;45.892;-123.962;2023-02-13T00:27:39;101980.98;;;10.12;77.57
51067;BME280;37112;45.892;-123.962;2023-02-13T00:29:49;101980.02;;;10.09;77.82
51067;BME280;37112;45.892;-123.962;2023-02-13T00:31:59;101974.15;;;10.06;77.96
51067;BME280;37112;45.892;-123.962;2023-02-13T00:34:10;101967.80;;;10.05;78.24
51067;BME280;37112;45.892;-123.962;2023-02-13T00:36:21;101962.90;;;10.03;78.09
51067;BME280;37112;45.892;-123.962;2023-02-13T00:38:32;101958.64;;;9.99;78.11
51067;BME280;37112;45.892;-123.962;2023-02-13T00:40:42;101965.39;;;9.95;78.28
51067;BME280;37112;45.892;-123.962;2023-02-13T00:42:52;101966.78;;;9.92;78.52
51067;BME280;37112;45.892;-123.962;2023-02-13T00:45:02;101964.44;;;9.89;78.66
51067;BME280;37112;45.892;-123.962;2023-02-13T00:47:12;101958.44;;;9.84;78.46
51067;BME280;37112;45.892;-123.962;2023-02-13T00:49:22;101960.25;;;9.79;78.49
51067;BME280;37112;45.892;-123.962;2023-02-13T00:51:32;101957.91;;;9.76;78.56
51067;BME280;37112;45.892;-123.962;2023-02-13T00:53:43;101950.79;;;9.73;78.64
51067;BME280;37112;45.892;-123.962;2023-02-13T00:55:54;101950.56;;;9.70;78.70
51067;BME280;37112;45.892;-123.962;2023-02-13T00:58:04;101952.29;;;9.67;78.87
51067;BME280;37112;45.892;-123.962;2023-02-13T01:00:16;101950.15;;;9.63;78.97
51067;BME280;37112;45.892;-123.962;2023-02-13T01:02:27;101949.96;;;9.59;79.17
51067;BME280;37112;45.892;-123.962;2023-02-13T01:04:38;101948.67;;;9.57;79.33
51067;BME280;37112;45.892;-123.962;2023-02-13T01:06:48;101950.16;;;9.55;79.57
51067;BME280;37112;45.892;-123.962;2023-02-13T01:08:58;101948.89;;;9.52;79.70
51067;BME280;37112;45.892;-123.962;2023-02-13T01:11:09;101948.46;;;9.49;79.84
51067;BME280;37112;45.892;-123.962;2023-02-13T01:13:19;101945.98;;;9.45;80.01
51067;BME280;37112;45.892;-123.962;2023-02-13T01:15:29;101942.64;;;9.44;80.23
51067;BME280;37112;45.892;-123.962;2023-02-13T01:17:40;101944.12;;;9.43;80.42
51067;BME280;37112;45.892;-123.962;2023-02-13T01:19:50;101946.07;;;9.43;80.76
51067;BME280;37112;45.892;-123.962;2023-02-13T01:22:02;101947.18;;;9.42;80.91
51067;BME280;37112;45.892;-123.962;2023-02-13T01:24:12;101948.11;;;9.40;81.24
51067;BME280;37112;45.892;-123.962;2023-02-13T01:26:23;101955.16;;;9.37;81.20
51067;BME280;37112;45.892;-123.962;2023-02-13T01:28:33;101949.42;;;9.35;81.46
51067;BME280;37112;45.892;-123.962;2023-02-13T01:30:44;101953.27;;;9.32;81.52
51067;BME280;37112;45.892;-123.962;2023-02-13T01:32:55;101957.79;;;9.30;81.56
51067;BME280;37112;45.892;-123.962;2023-02-13T01:35:05;101960.70;;;9.29;81.63
51067;BME280;37112;45.892;-123.962;2023-02-13T01:37:15;101961.14;;;9.27;81.77
51067;BME280;37112;45.892;-123.962;2023-02-13T01:39:26;101961.23;;;9.24;81.66
51067;BME280;37112;45.892;-123.962;2023-02-13T01:41:37;101961.36;;;9.21;81.64
51067;BME280;37112;45.892;-123.962;2023-02-13T01:43:49;101969.55;;;9.20;81.78
51067;BME280;37112;45.892;-123.962;2023-02-13T01:46:02;101971.11;;;9.21;81.97
51067;BME280;37112;45.892;-123.962;2023-02-13T01:48:16;101972.75;;;9.20;82.00
51067;BME280;37112;45.892;-123.962;2023-02-13T01:50:32;101971.22;;;9.18;81.82
51067;BME280;37112;45.892;-123.962;2023-02-13T01:52:45;101961.69;;;9.17;82.00
51067;BME280;37112;45.892;-123.962;2023-02-13T01:54:57;101952.99;;;9.17;81.94
51067;BME280;37112;45.892;-123.962;2023-02-13T01:57:10;101949.08;;;9.17;82.05
51067;BME280;37112;45.892;-123.962;2023-02-13T01:59:26;101949.27;;;9.18;82.13
51067;BME280;37112;45.892;-123.962;2023-02-13T02:01:37;101948.38;;;9.17;82.21
51067;BME280;37112;45.892;-123.962;2023-02-13T02:03:51;101948.92;;;9.17;82.34
51067;BME280;37112;45.892;-123.962;2023-02-13T02:06:03;101951.73;;;9.17;82.29
51067;BME280;37112;45.892;-123.962;2023-02-13T02:08:15;101949.80;;;9.17;82.44
51067;BME280;37112;45.892;-123.962;2023-02-13T02:10:31;101949.54;;;9.15;82.23
51067;BME280;37112;45.892;-123.962;2023-02-13T02:12:57;101951.88;;;9.14;82.38
51067;BME280;37112;45.892;-123.962;2023-02-13T02:15:09;101955.80;;;9.14;82.50
51067;BME280;37112;45.892;-123.962;2023-02-13T02:17:19;101952.10;;;9.14;82.51
51067;BME280;37112;45.892;-123.962;2023-02-13T02:19:36;101953.89;;;9.13;82.56
51067;BME280;37112;45.892;-123.962;2023-02-13T02:25:07;101951.19;;;8.93;79.94
51067;BME280;37112;45.892;-123.962;2023-02-13T02:33:02;101962.45;;;8.59;80.23
51067;BME280;37112;45.892;-123.962;2023-02-13T02:35:22;101960.48;;;8.51;80.27
51067;BME280;37112;45.892;-123.962;2023-02-13T02:37:50;101957.48;;;8.42;80.28
51067;BME280;37112;45.892;-123.962;2023-02-13T02:40:15;101951.77;;;8.33;80.49
51067;BME280;37112;45.892;-123.962;2023-02-13T02:42:40;101947.75;;;8.27;80.56
51067;BME280;37112;45.892;-123.962;2023-02-13T02:45:02;101934.86;;;8.22;80.68
51067;BME280;37112;45.892;-123.962;2023-02-13T02:47:23;101929.34;;;8.18;80.94
51067;BME280;37112;45.892;-123.962;2023-02-13T02:49:59;101929.02;;;8.13;81.06
51067;BME280;37112;45.892;-123.962;2023-02-13T02:52:17;101930.95;;;8.08;81.12
51067;BME280;37112;45.892;-123.962;2023-02-13T02:54:33;101930.45;;;8.07;81.52
51067;BME280;37112;45.892;-123.962;2023-02-13T02:57:11;101923.81;;;8.05;81.80
51067;BME280;37112;45.892;-123.962;2023-02-13T02:59:24;101919.98;;;8.04;81.75
51067;BME280;37112;45.892;-123.962;2023-02-13T03:01:57;101919.20;;;8.01;81.97
51067;BME280;37112;45.892;-123.962;2023-02-13T03:04:27;101918.52;;;7.99;82.29
51067;BME280;37112;45.892;-123.962;2023-02-13T03:06:58;101913.84;;;7.98;82.51
51067;BME280;37112;45.892;-123.962;2023-02-13T03:09:15;101909.13;;;7.96;82.86
51067;BME280;37112;45.892;-123.962;2023-02-13T03:11:46;101904.77;;;7.95;82.80
51067;BME280;37112;45.892;-123.962;2023-02-13T03:14:19;101897.82;;;7.91;82.81
51067;BME280;37112;45.892;-123.962;2023-02-13T03:16:29;101898.07;;;7.89;82.98
51067;BME280;37112;45.892;-123.962;2023-02-13T03:18:57;101894.91;;;7.89;83.36
51067;BME280;37112;45.892;-123.962;2023-02-13T03:21:28;101902.90;;;7.88;83.38
51067;BME280;37112;45.892;-123.962;2023-02-13T03:24:03;101902.37;;;7.88;83.59
51067;BME280;37112;45.892;-123.962;2023-02-13T03:26:31;101904.85;;;7.88;83.89
51067;BME280;37112;45.892;-123.962;2023-02-13T03:29:03;101904.73;;;7.87;84.09
51067;BME280;37112;45.892;-123.962;2023-02-13T03:31:37;101886.83;;;7.88;84.21
51067;BME280;37112;45.892;-123.962;2023-02-13T03:33:57;101881.65;;;7.88;84.41
51067;BME280;37112;45.892;-123.962;2023-02-13T03:36:20;101875.30;;;7.88;84.55
51067;BME280;37112;45.892;-123.962;2023-02-13T03:38:59;101871.18;;;7.89;84.80
51067;BME280;37112;45.892;-123.962;2023-02-13T03:41:14;101870.11;;;7.89;85.02
51067;BME280;37112;45.892;-123.962;2023-02-13T03:43:28;101869.38;;;7.90;85.16
51067;BME280;37112;45.892;-123.962;2023-02-13T03:45:44;101867.54;;;7.92;85.55
51067;BME280;37112;45.892;-123.962;2023-02-13T03:48:04;101861.98;;;7.94;85.67
51067;BME280;37112;45.892;-123.962;2023-02-13T03:50:41;101860.60;;;7.98;85.98
51067;BME280;37112;45.892;-123.962;2023-02-13T03:52:57;101860.48;;;8.00;86.10
51067;BME280;37112;45.892;-123.962;2023-02-13T03:55:11;101857.58;;;8.03;86.30
51067;BME280;37112;45.892;-123.962;2023-02-13T03:57:42;101855.70;;;8.06;86.42
51067;BME280;37112;45.892;-123.962;2023-02-13T04:00:13;101852.18;;;8.09;86.85
51067;BME280;37112;45.892;-123.962;2023-02-13T04:02:29;101856.99;;;8.13;86.92
51067;BME280;37112;45.892;-123.962;2023-02-13T04:04:47;101858.65;;;8.16;87.23
51067;BME280;37112;45.892;-123.962;2023-02-13T04:07:03;101859.10;;;8.18;87.49
51067;BME280;37112;45.892;-123.962;2023-02-13T04:09:17;101856.33;;;8.21;87.59
51067;BME280;37112;45.892;-123.962;2023-02-13T04:11:32;101846.30;;;8.24;88.07
51067;BME280;37112;45.892;-123.962;2023-02-13T04:13:47;101846.96;;;8.26;88.00
51067;BME280;37112;45.892;-123.962;2023-02-13T04:16:05;101847.25;;;8.27;88.16
51067;BME280;37112;45.892;-123.962;2023-02-13T04:18:19;101840.30;;;8.28;88.18
51067;BME280;37112;45.892;-123.962;2023-02-13T04:20:32;101834.58;;;8.30;88.27
51067;BME280;37112;45.892;-123.962;2023-02-13T04:22:46;101829.77;;;8.30;88.23
51067;BME280;37112;45.892;-123.962;2023-02-13T04:24:56;101825.30;;;8.31;88.41
51067;BME280;37112;45.892;-123.962;2023-02-13T04:27:06;101821.91;;;8.32;88.48
51067;BME280;37112;45.892;-123.962;2023-02-13T04:29:18;101817.34;;;8.31;88.82
51067;BME280;37112;45.892;-123.962;2023-02-13T04:31:28;101809.52;;;8.32;88.98
51067;BME280;37112;45.892;-123.962;2023-02-13T04:33:40;101796.41;;;8.33;88.98
51067;BME280;37112;45.892;-123.962;2023-02-13T04:35:53;101794.59;;;8.34;89.06
51067;BME280;37112;45.892;-123.962;2023-02-13T04:38:05;101789.45;;;8.34;89.50
51067;BME280;37112;45.892;-123.962;2023-02-13T04:40:18;101783.96;;;8.35;89.55
51067;BME280;37112;45.892;-123.962;2023-02-13T04:42:30;101785.20;;;8.35;89.54
51067;BME280;37112;45.892;-123.962;2023-02-13T04:44:43;101781.11;;;8.35;89.48
51067;BME280;37112;45.892;-123.962;2023-02-13T04:46:53;101782.81;;;8.37;89.61
51067;BME280;37112;45.892;-123.962;2023-02-13T04:49:05;101780.28;;;8.38;89.79
51067;BME280;37112;45.892;-123.962;2023-02-13T04:51:17;101773.65;;;8.40;89.97
51067;BME280;37112;45.892;-123.962;2023-02-13T04:53:29;101770.90;;;8.43;89.93
51067;BME280;37112;45.892;-123.962;2023-02-13T04:55:41;101767.81;;;8.45;90.21
51067;BME280;37112;45.892;-123.962;2023-02-13T04:57:54;101761.86;;;8.47;90.17
51067;BME280;37112;45.892;-123.962;2023-02-13T05:00:14;101765.14;;;8.50;90.16
51067;BME280;37112;45.892;-123.962;2023-02-13T05:02:23;101761.05;;;8.50;90.38
51067;BME280;37112;45.892;-123.962;2023-02-13T05:04:34;101778.73;;;8.50;90.90
51067;BME280;37112;45.892;-123.962;2023-02-13T05:06:44;101778.67;;;8.51;91.33
51067;BME280;37112;45.892;-123.962;2023-02-13T05:08:54;101775.81;;;8.52;91.22
51067;BME280;37112;45.892;-123.962;2023-02-13T05:11:09;101774.02;;;8.53;91.36
51067;BME280;37112;45.892;-123.962;2023-02-13T05:13:20;101773.27;;;8.53;91.31
51067;BME280;37112;45.892;-123.962;2023-02-13T05:15:30;101771.85;;;8.53;91.38
51067;BME280;37112;45.892;-123.962;2023-02-13T05:17:40;101772.54;;;8.54;91.31
51067;BME280;37112;45.892;-123.962;2023-02-13T05:19:51;101764.63;;;8.53;91.19
51067;BME280;37112;45.892;-123.962;2023-02-13T05:22:02;101765.95;;;8.55;91.27
51067;BME280;37112;45.892;-123.962;2023-02-13T05:24:29;101762.05;;;8.55;91.47
51067;BME280;37112;45.892;-123.962;2023-02-13T05:26:39;101758.15;;;8.55;91.42
51067;BME280;37112;45.892;-123.962;2023-02-13T05:28:49;101752.46;;;8.55;91.52
51067;BME280;37112;45.892;-123.962;2023-02-13T05:31:17;101752.98;;;8.56;91.54
51067;BME280;37112;45.892;-123.962;2023-02-13T05:33:27;101746.96;;;8.56;91.60
51067;BME280;37112;45.892;-123.962;2023-02-13T05:35:40;101753.16;;;8.56;91.82
51067;BME280;37112;45.892;-123.962;2023-02-13T05:37:55;101759.89;;;8.55;92.25
51067;BME280;37112;45.892;-123.962;2023-02-13T05:40:06;101762.71;;;8.56;92.12
51067;BME280;37112;45.892;-123.962;2023-02-13T05:42:16;101758.27;;;8.57;92.51
51067;BME280;37112;45.892;-123.962;2023-02-13T05:44:26;101758.52;;;8.59;92.72
51067;BME280;37112;45.892;-123.962;2023-02-13T05:46:37;101753.48;;;8.61;92.62
51067;BME280;37112;45.892;-123.962;2023-02-13T05:48:47;101755.14;;;8.64;92.63
51067;BME280;37112;45.892;-123.962;2023-02-13T05:50:58;101754.21;;;8.64;92.94
51067;BME280;37112;45.892;-123.962;2023-02-13T05:53:08;101752.20;;;8.66;92.89
51067;BME280;37112;45.892;-123.962;2023-02-13T05:55:18;101749.13;;;8.68;92.99
51067;BME280;37112;45.892;-123.962;2023-02-13T05:57:29;101745.20;;;8.69;93.38
51067;BME280;37112;45.892;-123.962;2023-02-13T05:59:41;101743.70;;;8.70;93.32
51067;BME280;37112;45.892;-123.962;2023-02-13T06:01:51;101741.73;;;8.71;93.57
51067;BME280;37112;45.892;-123.962;2023-02-13T06:04:04;101738.46;;;8.73;93.87
51067;BME280;37112;45.892;-123.962;2023-02-13T06:06:14;101743.14;;;8.75;94.19
51067;BME280;37112;45.892;-123.962;2023-02-13T06:08:25;101738.33;;;8.76;94.17
51067;BME280;37112;45.892;-123.962;2023-02-13T06:10:35;101734.05;;;8.76;95.29
51067;BME280;37112;45.892;-123.962;2023-02-13T06:12:45;101728.95;;;8.76;95.35
51067;BME280;37112;45.892;-123.962;2023-02-13T06:14:56;101729.29;;;8.76;95.19
51067;BME280;37112;45.892;-123.962;2023-02-13T06:17:06;101728.79;;;8.75;95.01
51067;BME280;37112;45.892;-123.962;2023-02-13T06:19:18;101722.47;;;8.74;95.21
51067;BME280;37112;45.892;-123.962;2023-02-13T06:21:28;101724.27;;;8.74;95.30
51067;BME280;37112;45.892;-123.962;2023-02-13T06:23:40;101731.19;;;8.73;95.42
51067;BME280;37112;45.892;-123.962;2023-02-13T06:25:50;101731.04;;;8.73;95.65
51067;BME280;37112;45.892;-123.962;2023-02-13T06:28:00;101733.52;;;8.73;95.88
51067;BME280;37112;45.892;-123.962;2023-02-13T06:30:12;101740.98;;;8.72;95.78
51067;BME280;37112;45.892;-123.962;2023-02-13T06:32:22;101737.48;;;8.71;95.63
51067;BME280;37112;45.892;-123.962;2023-02-13T06:34:32;101737.34;;;8.70;96.26
51067;BME280;37112;45.892;-123.962;2023-02-13T06:36:42;101729.84;;;8.68;95.86
51067;BME280;37112;45.892;-123.962;2023-02-13T06:38:51;101733.26;;;8.66;95.83
51067;BME280;37112;45.892;-123.962;2023-02-13T06:41:02;101735.77;;;8.65;96.53
51067;BME280;37112;45.892;-123.962;2023-02-13T06:43:15;101731.92;;;8.64;96.27
51067;BME280;37112;45.892;-123.962;2023-02-13T06:45:26;101728.66;;;8.61;96.23
51067;BME280;37112;45.892;-123.962;2023-02-13T06:47:36;101727.61;;;8.61;96.20
51067;BME280;37112;45.892;-123.962;2023-02-13T06:49:49;101726.94;;;8.60;96.10
51067;BME280;37112;45.892;-123.962;2023-02-13T06:51:59;101733.30;;;8.61;96.39
51067;BME280;37112;45.892;-123.962;2023-02-13T06:54:09;101727.90;;;8.59;97.15
51067;BME280;37112;45.892;-123.962;2023-02-13T06:56:19;101723.16;;;8.58;96.49
51067;BME280;37112;45.892;-123.962;2023-02-13T06:58:28;101711.33;;;8.57;96.83
51067;BME280;37112;45.892;-123.962;2023-02-13T07:00:38;101704.38;;;8.58;96.86
51067;BME280;37112;45.892;-123.962;2023-02-13T07:02:48;101702.20;;;8.59;97.54
51067;BME280;37112;45.892;-123.962;2023-02-13T07:04:59;101701.11;;;8.60;97.70
51067;BME280;37112;45.892;-123.962;2023-02-13T07:07:09;101709.92;;;8.61;97.49
51067;BME280;37112;45.892;-123.962;2023-02-13T07:09:19;101705.80;;;8.62;97.89
51067;BME280;37112;45.892;-123.962;2023-02-13T07:11:29;101708.04;;;8.64;98.25
51067;BME280;37112;45.892;-123.962;2023-02-13T07:13:41;101705.42;;;8.67;99.31
51067;BME280;37112;45.892;-123.962;2023-02-13T07:15:50;101715.05;;;8.73;99.96
51067;BME280;37112;45.892;-123.962;2023-02-13T07:18:01;101716.43;;;8.82;100.00
51067;BME280;37112;45.892;-123.962;2023-02-13T07:20:12;101714.83;;;8.90;100.00
51067;BME280;37112;45.892;-123.962;2023-02-13T07:22:22;101707.36;;;8.95;100.00
51067;BME280;37112;45.892;-123.962;2023-02-13T07:24:32;101696.02;;;8.99;100.00
51067;BME280;37112;45.892;-123.962;2023-02-13T07:26:45;101689.36;;;9.01;100.00
51067;BME280;37112;45.892;-123.962;2023-02-13T07:28:55;101700.11;;;9.03;100.00
51067;BME280;37112;45.892;-123.962;2023-02-13T07:31:17;101700.27;;;9.03;100.00
51067;BME280;37112;45.892;-123.962;2023-02-13T07:33:27;101702.84;;;9.01;100.00
51067;BME280;37112;45.892;-123.962;2023-02-13T07:35:37;101702.69;;;8.97;100.00
51067;BME280;37112;45.892;-123.962;2023-02-13T07:37:49;101697.91;;;8.92;100.00
51067;BME280;37112;45.892;-123.962;2023-02-13T07:40:01;101695.36;;;8.90;100.00
51067;BME280;37112;45.892;-123.962;2023-02-13T07:42:13;101699.88;;;8.89;100.00
51067;BME280;37112;45.892;-123.962;2023-02-13T07:44:23;101702.98;;;8.86;100.00
51067;BME280;37112;45.892;-123.962;2023-02-13T07:46:33;101706.61;;;8.84;100.00
51067;BME280;37112;45.892;-123.962;2023-02-13T07:48:43;101706.02;;;8.82;100.00
51067;BME280;37112;45.892;-123.962;2023-02-13T07:50:54;101706.09;;;8.80;100.00
51067;BME280;37112;45.892;-123.962;2023-02-13T07:53:08;101708.08;;;8.79;100.00
51067;BME280;37112;45.892;-123.962;2023-02-13T07:55:18;101711.96;;;8.79;100.00
51067;BME280;37112;45.892;-123.962;2023-02-13T07:57:28;101712.34;;;8.79;100.00
51067;BME280;37112;45.892;-123.962;2023-02-13T07:59:39;101718.63;;;8.77;100.00
51067;BME280;37112;45.892;-123.962;2023-02-13T08:01:49;101716.92;;;8.75;100.00
51067;BME280;37112;45.892;-123.962;2023-02-13T08:03:59;101720.35;;;8.74;100.00
51067;BME280;37112;45.892;-123.962;2023-02-13T08:06:09;101721.17;;;8.71;100.00
51067;BME280;37112;45.892;-123.962;2023-02-13T08:08:20;101722.73;;;8.63;99.77
51067;BME280;37112;45.892;-123.962;2023-02-13T08:10:30;101728.77;;;8.55;99.32
51067;BME280;37112;45.892;-123.962;2023-02-13T08:12:57;101732.05;;;8.45;98.76
51067;BME280;37112;45.892;-123.962;2023-02-13T08:15:10;101738.83;;;8.40;98.67
51067;BME280;37112;45.892;-123.962;2023-02-13T08:17:21;101740.86;;;8.37;98.81
51067;BME280;37112;45.892;-123.962;2023-02-13T08:19:31;101737.35;;;8.36;98.81
51067;BME280;37112;45.892;-123.962;2023-02-13T08:21:41;101735.98;;;8.35;98.45
51067;BME280;37112;45.892;-123.962;2023-02-13T08:23:51;101732.85;;;8.33;98.50
51067;BME280;37112;45.892;-123.962;2023-02-13T08:26:02;101733.92;;;8.33;97.82
51067;BME280;37112;45.892;-123.962;2023-02-13T08:28:12;101725.73;;;8.30;97.58
51067;BME280;37112;45.892;-123.962;2023-02-13T08:30:23;101724.30;;;8.30;97.86
51067;BME280;37112;45.892;-123.962;2023-02-13T08:32:32;101722.86;;;8.31;97.88
51067;BME280;37112;45.892;-123.962;2023-02-13T08:35:00;101723.70;;;8.28;97.02
51067;BME280;37112;45.892;-123.962;2023-02-13T08:37:10;101724.89;;;8.25;96.47
51067;BME280;37112;45.892;-123.962;2023-02-13T08:39:20;101727.55;;;8.24;96.80
51067;BME280;37112;45.892;-123.962;2023-02-13T08:41:30;101729.66;;;8.25;96.40
51067;BME280;37112;45.892;-123.962;2023-02-13T08:43:40;101733.29;;;8.23;95.78
51067;BME280;37112;45.892;-123.962;2023-02-13T08:45:50;101737.92;;;8.22;95.77
51067;BME280;37112;45.892;-123.962;2023-02-13T08:48:01;101738.23;;;8.23;95.77
51067;BME280;37112;45.892;-123.962;2023-02-13T08:50:12;101737.98;;;8.25;95.73
51067;BME280;37112;45.892;-123.962;2023-02-13T08:52:23;101734.86;;;8.28;95.85
51067;BME280;37112;45.892;-123.962;2023-02-13T08:54:34;101740.80;;;8.29;95.58
51067;BME280;37112;45.892;-123.962;2023-02-13T08:56:44;101735.84;;;8.30;95.36
51067;BME280;37112;45.892;-123.962;2023-02-13T08:58:54;101731.82;;;8.28;94.88
51067;BME280;37112;45.892;-123.962;2023-02-13T09:01:08;101732.94;;;8.27;94.35
51067;BME280;37112;45.892;-123.962;2023-02-13T09:03:18;101736.02;;;8.25;94.07
51067;BME280;37112;45.892;-123.962;2023-02-13T09:05:29;101733.25;;;8.24;93.94
51067;BME280;37112;45.892;-123.962;2023-02-13T09:07:39;101728.89;;;8.22;93.44
51067;BME280;37112;45.892;-123.962;2023-02-13T09:09:49;101728.08;;;8.21;93.04
51067;BME280;37112;45.892;-123.962;2023-02-13T09:11:59;101732.73;;;8.20;92.70
51067;BME280;37112;45.892;-123.962;2023-02-13T09:14:09;101730.87;;;8.18;92.48
51067;BME280;37112;45.892;-123.962;2023-02-13T09:16:19;101727.91;;;8.16;91.84
51067;BME280;37112;45.892;-123.962;2023-02-13T09:18:29;101725.33;;;8.14;92.21
51067;BME280;37112;45.892;-123.962;2023-02-13T09:20:39;101719.81;;;8.15;92.32
51067;BME280;37112;45.892;-123.962;2023-02-13T09:22:49;101716.29;;;8.15;91.82
51067;BME280;37112;45.892;-123.962;2023-02-13T09:24:59;101714.59;;;8.13;91.83
51067;BME280;37112;45.892;-123.962;2023-02-13T09:27:11;101714.92;;;8.14;91.95
51067;BME280;37112;45.892;-123.962;2023-02-13T09:29:21;101713.11;;;8.15;92.16
51067;BME280;37112;45.892;-123.962;2023-02-13T09:31:31;101713.38;;;8.17;92.18
51067;BME280;37112;45.892;-123.962;2023-02-13T09:33:42;101711.54;;;8.19;92.29
51067;BME280;37112;45.892;-123.962;2023-02-13T09:35:52;101716.02;;;8.21;92.54
51067;BME280;37112;45.892;-123.962;2023-02-13T09:38:03;101708.66;;;8.24;92.41
51067;BME280;37112;45.892;-123.962;2023-02-13T09:40:22;101706.13;;;8.25;92.27
51067;BME280;37112;45.892;-123.962;2023-02-13T09:42:35;101694.96;;;8.26;92.22
51067;BME280;37112;45.892;-123.962;2023-02-13T09:44:45;101690.80;;;8.28;92.17
51067;BME280;37112;45.892;-123.962;2023-02-13T09:46:58;101687.14;;;8.30;92.35
51067;BME280;37112;45.892;-123.962;2023-02-13T09:49:13;101685.98;;;8.33;92.34
51067;BME280;37112;45.892;-123.962;2023-02-13T09:51:25;101680.30;;;8.33;92.26
51067;BME280;37112;45.892;-123.962;2023-02-13T09:53:36;101671.27;;;8.34;91.91
51067;BME280;37112;45.892;-123.962;2023-02-13T09:55:59;101670.25;;;8.32;91.65
51067;BME280;37112;45.892;-123.962;2023-02-13T09:58:17;101677.50;;;8.32;91.89
51067;BME280;37112;45.892;-123.962;2023-02-13T10:00:34;101679.42;;;8.33;92.03
51067;BME280;37112;45.892;-123.962;2023-02-13T10:02:57;101671.27;;;8.34;92.11
51067;BME280;37112;45.892;-123.962;2023-02-13T10:05:19;101660.80;;;8.34;92.21
51067;BME280;37112;45.892;-123.962;2023-02-13T10:07:35;101663.27;;;8.34;92.05
51067;BME280;37112;45.892;-123.962;2023-02-13T10:09:54;101663.85;;;8.33;91.77
51067;BME280;37112;45.892;-123.962;2023-02-13T10:15:12;101654.09;;;8.29;91.43
51067;BME280;37112;45.892;-123.962;2023-02-13T10:17:27;101652.77;;;8.28;91.22
51067;BME280;37112;45.892;-123.962;2023-02-13T10:19:41;101654.23;;;8.27;91.24
51067;BME280;37112;45.892;-123.962;2023-02-13T10:21:55;101654.45;;;8.26;91.07
51067;BME280;37112;45.892;-123.962;2023-02-13T10:24:10;101650.09;;;8.23;90.77
51067;BME280;37112;45.892;-123.962;2023-02-13T10:26:23;101652.63;;;8.22;90.60
51067;BME280;37112;45.892;-123.962;2023-02-13T10:28:53;101653.75;;;8.21;90.54
51067;BME280;37112;45.892;-123.962;2023-02-13T10:31:24;101652.39;;;8.20;90.47
51067;BME280;37112;45.892;-123.962;2023-02-13T10:33:38;101653.23;;;8.21;90.61
51067;BME280;37112;45.892;-123.962;2023-02-13T10:35:55;101646.11;;;8.22;90.45
51067;BME280;37112;45.892;-123.962;2023-02-13T10:38:15;101643.05;;;8.23;90.65
51067;BME280;37112;45.892;-123.962;2023-02-13T10:40:31;101639.08;;;8.25;90.83
51067;BME280;37112;45.892;-123.962;2023-02-13T10:42:45;101635.70;;;8.26;90.51
51067;BME280;37112;45.892;-123.962;2023-02-13T10:45:13;101628.14;;;8.24;90.35
51067;BME280;37112;45.892;-123.962;2023-02-13T10:47:40;101618.33;;;8.22;90.04
51067;BME280;37112;45.892;-123.962;2023-02-13T10:50:02;101608.33;;;8.20;89.87
51067;BME280;37112;45.892;-123.962;2023-02-13T10:52:21;101602.95;;;8.18;89.52
51067;BME280;37112;45.892;-123.962;2023-02-13T10:54:49;101608.14;;;8.16;89.74
51067;BME280;37112;45.892;-123.962;2023-02-13T10:57:15;101607.83;;;8.15;89.81
51067;BME280;37112;45.892;-123.962;2023-02-13T11:02:01;101600.11;;;8.14;90.04
51067;BME280;37112;45.892;-123.962;2023-02-13T11:04:18;101595.52;;;8.14;89.87
51067;BME280;37112;45.892;-123.962;2023-02-13T11:06:26;101593.11;;;8.12;89.66
51067;BME280;37112;45.892;-123.962;2023-02-13T11:08:41;101587.70;;;8.10;89.54
51067;BME280;37112;45.892;-123.962;2023-02-13T11:10:53;101585.80;;;8.09;89.50
51067;BME280;37112;45.892;-123.962;2023-02-13T11:13:16;101582.97;;;8.09;89.49
51067;BME280;37112;45.892;-123.962;2023-02-13T11:15:28;101579.76;;;8.10;89.69
51067;BME280;37112;45.892;-123.962;2023-02-13T11:17:44;101572.27;;;8.12;89.73
51067;BME280;37112;45.892;-123.962;2023-02-13T11:19:57;101569.00;;;8.13;89.86
51067;BME280;37112;45.892;-123.962;2023-02-13T11:22:10;101570.53;;;8.15;89.53
51067;BME280;37112;45.892;-123.962;2023-02-13T11:24:23;101565.23;;;8.14;89.31
51067;BME280;37112;45.892;-123.962;2023-02-13T11:26:35;101561.50;;;8.15;89.47
51067;BME280;37112;45.892;-123.962;2023-02-13T11:28:52;101561.52;;;8.14;88.95
51067;BME280;37112;45.892;-123.962;2023-02-13T11:31:13;101554.93;;;8.11;88.44
51067;BME280;37112;45.892;-123.962;2023-02-13T11:33:26;101556.16;;;8.11;88.71
51067;BME280;37112;45.892;-123.962;2023-02-13T11:35:34;101558.20;;;8.14;88.63